createdAt,value
2023-02-28T00:01:34.867Z,8.50
2023-02-28T00:04:02.962Z,8.37
2023-02-28T00:06:30.584Z,8.20
2023-02-28T00:08:58.052Z,6.93
2023-02-28T00:11:25.460Z,7.20
2023-02-28T00:13:52.790Z,7.07
2023-02-28T00:16:22.587Z,9.00
2023-02-28T00:18:50.969Z,8.10
2023-02-28T00:21:19.549Z,9.00
2023-02-28T00:23:47.325Z,8.67
2023-02-28T00:26:14.815Z,11.47
2023-02-28T00:28:46.235Z,8.07
2023-02-28T00:31:13.717Z,8.57
2023-02-28T00:33:41.088Z,8.03
2023-02-28T00:36:11.910Z,6.73
2023-02-28T00:38:40.257Z,8.57
2023-02-28T00:41:08.293Z,9.27
2023-02-28T00:43:38.173Z,9.23
2023-02-28T00:46:06.330Z,7.57
2023-02-28T00:48:34.020Z,8.13
2023-02-28T00:51:01.559Z,6.67
2023-02-28T00:53:29.342Z,10.50
2023-02-28T00:55:58.513Z,9.23
2023-02-28T00:58:27.312Z,8.87
2023-02-28T01:00:55.074Z,7.80
2023-02-28T01:03:23.695Z,7.10
2023-02-28T01:05:51.636Z,8.37
2023-02-28T01:08:19.109Z,7.53
2023-02-28T01:10:46.788Z,8.10
2023-02-28T01:13:14.789Z,8.80
2023-02-28T01:15:49.964Z,6.63
2023-02-28T01:18:17.461Z,9.40
2023-02-28T01:20:45.494Z,18.77
2023-02-28T01:23:12.988Z,8.03
2023-02-28T01:25:40.713Z,7.57
2023-02-28T01:28:08.214Z,8.50
2023-02-28T01:30:35.705Z,6.47
2023-02-28T01:33:03.130Z,7.63
2023-02-28T01:35:37.053Z,7.13
2023-02-28T01:38:20.485Z,7.30
2023-02-28T01:40:49.063Z,7.67
2023-02-28T01:43:53.743Z,7.27
2023-02-28T01:46:21.494Z,10.40
2023-02-28T01:48:59.230Z,6.60
2023-02-28T01:51:51.683Z,7.80
2023-02-28T01:54:29.112Z,10.03
2023-02-28T01:57:07.409Z,6.90
2023-02-28T01:59:41.529Z,9.80
2023-02-28T02:02:09.178Z,7.53
2023-02-28T02:04:47.336Z,7.97
2023-02-28T02:07:15.269Z,8.03
2023-02-28T02:09:45.990Z,8.38
2023-02-28T02:12:29.468Z,7.63
2023-02-28T02:15:06.883Z,8.80
2023-02-28T02:17:41.325Z,7.20
2023-02-28T02:20:39.253Z,7.43
2023-02-28T02:23:58.819Z,6.77
2023-02-28T02:26:59.391Z,6.63
2023-02-28T02:29:54.244Z,7.23
2023-02-28T02:32:59.265Z,8.17
2023-02-28T02:36:04.016Z,6.77
2023-02-28T02:39:00.253Z,7.97
2023-02-28T02:41:54.718Z,6.50
2023-02-28T02:44:42.081Z,6.50
2023-02-28T02:47:18.361Z,8.00
2023-02-28T02:49:50.551Z,7.77
2023-02-28T02:52:22.524Z,6.73
2023-02-28T02:54:56.408Z,7.07
2023-02-28T02:57:55.382Z,5.37
2023-02-28T03:00:29.769Z,7.60
2023-02-28T03:02:57.999Z,6.60
2023-02-28T03:05:30.219Z,6.33
2023-02-28T03:07:57.698Z,7.10
2023-02-28T03:10:35.156Z,7.53
2023-02-28T03:13:41.612Z,6.63
2023-02-28T03:16:47.211Z,5.87
2023-02-28T03:19:35.983Z,5.70
2023-02-28T03:22:24.913Z,5.90
2023-02-28T03:25:24.915Z,6.43
2023-02-28T03:28:23.645Z,6.43
2023-02-28T03:31:17.024Z,5.73
2023-02-28T03:34:17.979Z,6.20
2023-02-28T03:37:00.327Z,6.20
2023-02-28T03:39:35.118Z,6.20
2023-02-28T03:42:08.124Z,6.40
2023-02-28T03:44:49.995Z,6.17
2023-02-28T03:47:40.217Z,7.55
2023-02-28T03:50:28.297Z,6.47
2023-02-28T03:53:05.791Z,6.43
2023-02-28T03:55:42.867Z,7.87
2023-02-28T03:58:36.753Z,6.37
2023-02-28T04:01:14.124Z,6.70
2023-02-28T04:03:41.523Z,8.80
2023-02-28T04:06:16.833Z,7.27
2023-02-28T04:08:44.504Z,7.73
2023-02-28T04:11:25.151Z,7.63
2023-02-28T04:13:52.809Z,6.03
2023-02-28T04:16:33.981Z,8.50
2023-02-28T04:19:05.907Z,6.83
2023-02-28T04:21:40.131Z,8.87
2023-02-28T04:24:09.070Z,9.43
2023-02-28T04:26:37.980Z,7.83
2023-02-28T04:29:07.066Z,9.23
2023-02-28T04:31:35.100Z,7.67
2023-02-28T04:34:02.706Z,8.83
2023-02-28T04:36:30.646Z,6.83
2023-02-28T04:38:58.181Z,8.70
2023-02-28T04:41:25.636Z,7.37
2023-02-28T04:43:53.929Z,8.23
2023-02-28T04:46:21.980Z,8.07
2023-02-28T04:48:49.549Z,10.07
2023-02-28T04:51:19.081Z,8.97
2023-02-28T04:53:47.473Z,8.13
2023-02-28T04:56:16.995Z,10.90
2023-02-28T04:58:44.606Z,10.07
2023-02-28T05:01:29.323Z,10.97
2023-02-28T05:03:58.915Z,8.97
2023-02-28T05:06:28.076Z,9.33
2023-02-28T05:08:55.637Z,12.67
2023-02-28T05:11:35.904Z,10.57
2023-02-28T05:14:05.451Z,8.30
2023-02-28T05:16:33.394Z,10.73
2023-02-28T05:19:00.827Z,8.30
2023-02-28T05:21:31.658Z,8.37
2023-02-28T05:24:01.296Z,9.73
2023-02-28T05:26:29.603Z,7.97
2023-02-28T05:28:57.725Z,9.37
2023-02-28T05:31:25.108Z,11.60
2023-02-28T05:33:52.690Z,10.00
2023-02-28T05:36:20.870Z,7.10
2023-02-28T05:38:49.706Z,9.63
2023-02-28T05:41:18.333Z,8.47
2023-02-28T05:43:45.714Z,9.07
2023-02-28T05:46:14.093Z,12.30
2023-02-28T05:48:42.947Z,10.07
2023-02-28T05:51:10.624Z,11.13
2023-02-28T05:53:38.022Z,7.67
2023-02-28T05:56:05.578Z,10.43
2023-02-28T05:58:33.035Z,7.57
2023-02-28T06:01:02.380Z,12.40
2023-02-28T06:03:29.734Z,10.17
2023-02-28T06:05:57.213Z,9.87
2023-02-28T06:08:24.600Z,11.13
2023-02-28T06:10:51.855Z,9.83
2023-02-28T06:13:19.143Z,11.73
2023-02-28T06:15:46.384Z,15.00
2023-02-28T06:18:13.700Z,10.57
2023-02-28T06:20:41.291Z,11.10
2023-02-28T06:23:08.663Z,11.47
2023-02-28T06:25:36.076Z,12.87
2023-02-28T06:28:03.562Z,11.97
2023-02-28T06:30:34.840Z,14.23
2023-02-28T06:33:02.185Z,14.35
2023-02-28T06:35:30.493Z,9.43
2023-02-28T06:37:57.893Z,11.37
2023-02-28T06:40:25.183Z,11.47
2023-02-28T06:42:52.612Z,10.93
2023-02-28T06:45:20.088Z,9.93
2023-02-28T06:47:52.001Z,8.40
2023-02-28T06:52:49.001Z,10.33
2023-02-28T06:55:16.860Z,23.00
2023-02-28T06:57:44.163Z,15.53
2023-02-28T07:00:12.500Z,24.33
2023-02-28T07:02:39.964Z,10.27
2023-02-28T07:05:07.896Z,32.23
2023-02-28T07:07:37.436Z,23.47
2023-02-28T07:10:05.246Z,45.53
2023-02-28T07:12:32.536Z,44.70
2023-02-28T07:14:59.856Z,56.10
2023-02-28T07:17:27.160Z,43.77
2023-02-28T07:19:54.481Z,66.77
2023-02-28T07:22:21.784Z,63.63
2023-02-28T07:24:49.313Z,46.00
2023-02-28T07:27:24.620Z,37.53
2023-02-28T07:29:52.652Z,15.43
2023-02-28T07:32:20.433Z,13.23
2023-02-28T07:34:47.959Z,12.83
2023-02-28T07:37:15.592Z,13.97
2023-02-28T07:39:43.471Z,16.27
2023-02-28T07:42:12.883Z,12.83
2023-02-28T07:44:41.634Z,15.00
2023-02-28T07:47:10.723Z,14.40
2023-02-28T07:49:38.390Z,18.17
2023-02-28T07:52:07.229Z,12.10
2023-02-28T07:54:35.148Z,13.77
2023-02-28T07:57:02.426Z,14.53
2023-02-28T07:59:32.195Z,16.83
2023-02-28T08:02:00.278Z,13.10
2023-02-28T08:04:27.849Z,12.87
2023-02-28T08:06:57.382Z,13.60
2023-02-28T08:09:24.798Z,19.17
2023-02-28T08:11:52.115Z,15.10
2023-02-28T08:14:19.486Z,16.03
2023-02-28T08:16:46.793Z,17.20
2023-02-28T08:19:14.129Z,15.47
2023-02-28T08:21:41.512Z,12.50
2023-02-28T08:24:08.964Z,11.97
2023-02-28T08:26:36.292Z,12.67
2023-02-28T08:29:03.613Z,13.97
2023-02-28T08:31:31.240Z,13.20
2023-02-28T08:34:00.193Z,16.47
2023-02-28T08:36:29.725Z,10.03
2023-02-28T08:38:58.294Z,13.40
2023-02-28T08:41:25.586Z,12.53
2023-02-28T08:43:53.111Z,11.80
2023-02-28T08:46:20.916Z,15.73
2023-02-28T08:48:48.437Z,14.40
2023-02-28T08:51:19.643Z,12.77
2023-02-28T08:53:46.985Z,10.95
2023-02-28T08:56:17.653Z,11.10
2023-02-28T08:58:47.129Z,12.73
2023-02-28T09:01:16.979Z,10.57
2023-02-28T09:03:45.360Z,11.83
2023-02-28T09:06:13.212Z,13.57
2023-02-28T09:08:40.696Z,13.63
2023-02-28T09:11:08.285Z,11.70
2023-02-28T09:13:36.093Z,11.17
2023-02-28T09:16:05.473Z,11.77
2023-02-28T09:18:34.414Z,8.30
2023-02-28T09:21:05.812Z,10.17
2023-02-28T09:23:33.174Z,12.68
2023-02-28T09:26:00.538Z,11.97
2023-02-28T09:28:28.071Z,13.50
2023-02-28T09:30:55.872Z,9.87
2023-02-28T09:33:24.391Z,8.93
2023-02-28T09:35:58.337Z,9.43
2023-02-28T09:38:25.662Z,7.30
2023-02-28T09:40:57.933Z,7.33
2023-02-28T09:43:28.093Z,5.93
2023-02-28T09:46:25.656Z,6.40
2023-02-28T09:48:53.587Z,8.30
2023-02-28T09:52:00.761Z,5.73
2023-02-28T09:54:30.848Z,7.77
2023-02-28T09:57:05.819Z,6.30
2023-02-28T09:59:54.370Z,6.10
2023-02-28T10:03:01.000Z,6.73
2023-02-28T10:05:33.983Z,5.53
2023-02-28T10:08:54.189Z,6.73
2023-02-28T10:11:23.898Z,5.73
2023-02-28T10:14:13.903Z,5.67
2023-02-28T10:17:02.590Z,6.27
2023-02-28T10:20:21.711Z,7.07
2023-02-28T10:22:58.245Z,4.37
2023-02-28T10:25:28.810Z,13.77
2023-02-28T10:28:11.515Z,7.40
2023-02-28T10:30:46.252Z,7.07
2023-02-28T10:33:30.945Z,8.37
2023-02-28T10:35:58.444Z,5.73
2023-02-28T10:38:29.034Z,10.20
2023-02-28T10:41:08.222Z,10.43
2023-02-28T10:43:36.543Z,6.80
2023-02-28T10:46:26.986Z,10.33
2023-02-28T10:49:07.763Z,7.77
2023-02-28T10:51:37.949Z,9.07
2023-02-28T10:54:06.222Z,7.27
2023-02-28T10:56:34.589Z,12.17
2023-02-28T10:59:30.389Z,9.67
2023-02-28T11:01:58.055Z,7.83
2023-02-28T11:04:33.457Z,7.78
2023-02-28T11:07:02.161Z,10.40
2023-02-28T11:09:35.857Z,9.17
2023-02-28T11:12:06.926Z,8.07
2023-02-28T11:14:47.957Z,8.05
2023-02-28T11:17:23.862Z,8.87
2023-02-28T11:20:22.424Z,7.83
2023-02-28T11:22:51.149Z,8.60
2023-02-28T11:25:26.281Z,13.40
2023-02-28T11:27:56.546Z,10.77
2023-02-28T11:30:41.728Z,8.67
2023-02-28T11:33:24.982Z,9.70
2023-02-28T11:35:53.586Z,12.07
2023-02-28T11:38:20.970Z,7.40
2023-02-28T11:40:56.480Z,9.80
2023-02-28T11:43:43.800Z,7.50
2023-02-28T11:46:25.490Z,8.60
2023-02-28T11:49:39.520Z,10.55
2023-02-28T11:52:37.684Z,9.10
2023-02-28T11:55:28.766Z,10.30
2023-02-28T11:58:28.789Z,8.80
2023-02-28T12:01:16.515Z,10.47
2023-02-28T12:04:10.691Z,8.13
2023-02-28T12:06:53.380Z,7.53
2023-02-28T12:09:58.485Z,8.40
2023-02-28T12:13:06.379Z,9.03
2023-02-28T12:16:03.203Z,8.93
2023-02-28T12:22:21.878Z,11.50
2023-02-28T12:25:04.795Z,9.80
2023-02-28T12:27:37.496Z,13.93
2023-02-28T12:30:31.028Z,13.67
2023-02-28T12:33:09.276Z,8.63
2023-02-28T12:35:56.790Z,9.93
2023-02-28T12:38:45.912Z,9.67
2023-02-28T12:41:21.306Z,8.20
2023-02-28T12:44:01.392Z,12.80
2023-02-28T12:46:43.506Z,11.50
2023-02-28T12:49:55.438Z,7.77
2023-02-28T12:53:09.221Z,10.90
2023-02-28T12:55:57.125Z,10.00
2023-02-28T12:58:57.006Z,9.20
2023-02-28T13:02:33.436Z,9.80
2023-02-28T13:05:33.604Z,11.70
2023-02-28T13:08:38.355Z,9.67
2023-02-28T13:11:13.125Z,9.63
2023-02-28T13:13:47.236Z,8.93
2023-02-28T13:16:15.078Z,13.63
2023-02-28T13:18:48.068Z,10.70
2023-02-28T13:21:31.119Z,9.23
2023-02-28T13:24:05.900Z,12.87
2023-02-28T13:30:44.089Z,9.23
2023-02-28T13:33:50.645Z,10.20
2023-02-28T13:36:31.210Z,10.17
2023-02-28T13:39:05.105Z,12.20
2023-02-28T13:41:45.788Z,10.07
2023-02-28T13:44:27.523Z,13.93
2023-02-28T13:47:22.275Z,10.48
2023-02-28T13:49:51.192Z,15.73
2023-02-28T13:52:23.046Z,11.03
2023-02-28T13:55:20.747Z,10.73
2023-02-28T13:58:22.981Z,9.37
2023-02-28T14:01:28.263Z,11.68
2023-02-28T14:04:35.778Z,10.07
2023-02-28T14:07:04.503Z,11.97
2023-02-28T14:09:42.298Z,10.87
2023-02-28T14:12:46.895Z,9.50
2023-02-28T14:15:57.852Z,11.43
2023-02-28T14:19:01.944Z,11.70
2023-02-28T14:21:35.368Z,15.13
2023-02-28T14:24:26.023Z,12.00
2023-02-28T14:27:38.535Z,10.73
2023-02-28T14:30:46.902Z,9.27
2023-02-28T14:33:45.437Z,10.57
2023-02-28T14:36:24.436Z,12.60
2023-02-28T14:38:58.385Z,11.33
2023-02-28T14:41:31.817Z,9.77
2023-02-28T14:44:01.323Z,12.77
2023-02-28T14:46:38.153Z,13.60
2023-02-28T14:49:27.152Z,13.30
2023-02-28T14:52:29.762Z,13.00
2023-02-28T14:57:36.184Z,12.73
2023-02-28T15:00:21.599Z,12.13
2023-02-28T15:02:49.236Z,12.40
2023-02-28T15:05:30.848Z,11.83
2023-02-28T15:08:15.858Z,12.52
2023-02-28T15:10:56.783Z,13.20
2023-02-28T15:13:31.175Z,11.57
2023-02-28T15:16:03.898Z,10.83
2023-02-28T15:18:53.884Z,13.10
2023-02-28T15:21:34.902Z,11.93
2023-02-28T15:24:26.089Z,10.77
2023-02-28T15:26:59.288Z,12.00
2023-02-28T15:29:29.799Z,12.17
2023-02-28T15:32:02.901Z,15.20
2023-02-28T15:34:45.000Z,10.53
2023-02-28T15:40:26.962Z,10.87
2023-02-28T15:43:06.225Z,10.30
2023-02-28T15:45:39.384Z,11.13
2023-02-28T15:48:40.664Z,9.53
2023-02-28T15:51:19.774Z,12.37
2023-02-28T15:53:55.568Z,10.67
2023-02-28T15:56:28.117Z,11.87
2023-02-28T15:59:14.900Z,13.07
2023-02-28T16:01:42.389Z,12.17
2023-02-28T16:04:18.276Z,13.17
2023-02-28T16:07:06.222Z,11.67
2023-02-28T16:09:35.264Z,14.17
2023-02-28T16:12:04.421Z,14.03
2023-02-28T16:14:32.267Z,15.03
2023-02-28T16:17:09.939Z,14.87
2023-02-28T16:19:37.629Z,11.60
2023-02-28T16:22:04.950Z,9.97
2023-02-28T16:24:32.382Z,13.07
2023-02-28T16:27:00.794Z,11.17
2023-02-28T16:29:35.128Z,17.37
2023-02-28T16:32:06.199Z,12.67
2023-02-28T16:34:33.964Z,11.50
2023-02-28T16:37:01.382Z,11.00
2023-02-28T16:39:28.797Z,11.93
2023-02-28T16:41:56.252Z,12.63
2023-02-28T16:44:33.067Z,13.93
2023-02-28T16:47:05.186Z,11.63
2023-02-28T16:52:00.000Z,13.30
2023-02-28T16:54:27.688Z,12.53
2023-02-28T16:56:55.243Z,12.57
2023-02-28T16:59:27.502Z,13.53
2023-02-28T17:01:57.933Z,13.47
2023-02-28T17:04:27.248Z,13.67
2023-02-28T17:06:54.762Z,17.67
2023-02-28T17:09:30.794Z,14.37
2023-02-28T17:12:04.366Z,15.40
2023-02-28T17:14:32.225Z,15.97
2023-02-28T17:17:00.014Z,14.30
2023-02-28T17:19:27.679Z,12.97
2023-02-28T17:21:55.062Z,12.57
2023-02-28T17:24:30.870Z,16.30
2023-02-28T17:26:59.328Z,17.53
2023-02-28T17:29:26.839Z,16.97
2023-02-28T17:31:54.586Z,21.57
2023-02-28T17:34:22.827Z,21.40
2023-02-28T17:36:52.014Z,20.90
2023-02-28T17:39:26.233Z,18.10
2023-02-28T17:41:55.265Z,22.23
2023-02-28T17:44:24.866Z,21.37
2023-02-28T17:46:54.431Z,21.40
2023-02-28T17:49:22.651Z,16.33
2023-02-28T17:51:51.571Z,20.37
2023-02-28T17:54:19.272Z,17.27
2023-02-28T17:56:47.412Z,34.13
2023-02-28T17:59:14.988Z,103.80
2023-02-28T18:01:42.653Z,140.03
2023-02-28T18:04:10.172Z,125.90
2023-02-28T18:06:50.925Z,140.43
2023-02-28T18:09:23.717Z,45.50
2023-02-28T18:11:53.654Z,35.37
2023-02-28T18:14:24.552Z,49.23
2023-02-28T18:16:53.431Z,46.10
2023-02-28T18:19:21.269Z,42.50
2023-02-28T18:21:51.327Z,42.37
2023-02-28T18:24:21.038Z,39.00
2023-02-28T18:26:48.559Z,47.73
2023-02-28T18:29:24.822Z,43.23
2023-02-28T18:31:53.530Z,40.73
2023-02-28T18:34:21.565Z,46.43
2023-02-28T18:36:50.723Z,41.93
2023-02-28T18:39:19.239Z,39.83
2023-02-28T18:41:46.794Z,41.40
2023-02-28T18:44:19.929Z,40.30
2023-02-28T18:46:49.719Z,41.07
2023-02-28T18:49:17.874Z,40.00
2023-02-28T18:51:46.737Z,37.90
2023-02-28T18:54:16.262Z,37.17
2023-02-28T18:56:44.003Z,36.50
2023-02-28T18:59:12.028Z,38.07
2023-02-28T19:01:40.154Z,38.90
2023-02-28T19:04:07.665Z,38.40
2023-02-28T19:06:38.142Z,46.10
2023-02-28T19:09:06.384Z,39.60
2023-02-28T19:11:36.584Z,43.37
2023-02-28T19:14:04.376Z,33.20
2023-02-28T19:16:32.175Z,31.70
2023-02-28T19:18:59.898Z,31.93
2023-02-28T19:21:27.483Z,28.00
2023-02-28T19:23:54.908Z,31.17
2023-02-28T19:26:24.926Z,32.47
2023-02-28T19:28:52.469Z,31.10
2023-02-28T19:31:25.290Z,38.40
2023-02-28T19:33:53.103Z,32.00
2023-02-28T19:36:22.021Z,33.43
2023-02-28T19:38:50.305Z,31.33
2023-02-28T19:41:18.571Z,30.17
2023-02-28T19:43:46.725Z,28.67
2023-02-28T19:46:14.646Z,30.67
2023-02-28T19:48:44.743Z,35.07
2023-02-28T19:51:13.587Z,34.30
2023-02-28T19:53:42.236Z,33.47
2023-02-28T19:56:10.228Z,42.83
2023-02-28T19:58:38.248Z,35.27
2023-02-28T20:01:13.910Z,36.57
2023-02-28T20:03:41.946Z,38.23
2023-02-28T20:06:13.844Z,41.87
2023-02-28T20:11:11.197Z,49.73
2023-02-28T20:13:38.788Z,58.43
2023-02-28T20:16:09.758Z,49.43
2023-02-28T20:18:38.787Z,41.97
2023-02-28T20:21:09.168Z,52.13
2023-02-28T20:23:39.293Z,46.67
2023-02-28T20:26:06.908Z,46.33
2023-02-28T20:28:34.438Z,53.57
2023-02-28T20:31:02.170Z,49.00
2023-02-28T20:33:30.040Z,61.63
2023-02-28T20:36:05.616Z,56.47
2023-02-28T20:38:33.704Z,52.73
2023-02-28T20:41:02.030Z,57.90
2023-02-28T20:43:30.061Z,49.07
2023-02-28T20:45:58.920Z,60.00
2023-02-28T20:48:26.550Z,60.37
2023-02-28T20:50:56.074Z,51.37
2023-02-28T20:53:25.948Z,52.63
2023-02-28T20:56:25.927Z,52.70
2023-02-28T20:58:56.034Z,53.97
2023-02-28T21:01:26.455Z,45.63
2023-02-28T21:04:00.161Z,44.33
2023-02-28T21:06:30.952Z,46.90
2023-02-28T21:08:59.359Z,55.40
2023-02-28T21:11:31.649Z,52.77
2023-02-28T21:14:01.517Z,52.63
2023-02-28T21:16:32.112Z,74.47
2023-02-28T21:19:06.147Z,53.13
2023-02-28T21:21:36.642Z,45.07
2023-02-28T21:24:04.773Z,45.87
2023-02-28T21:26:32.712Z,51.83
2023-02-28T21:29:02.381Z,47.43
2023-02-28T21:31:32.294Z,45.63
2023-02-28T21:34:01.329Z,42.17
2023-02-28T21:36:33.172Z,47.97
2023-02-28T21:41:30.482Z,43.07
2023-02-28T21:43:58.019Z,50.73
2023-02-28T21:46:28.378Z,45.00
2023-02-28T21:48:56.349Z,39.77
2023-02-28T21:51:31.157Z,41.33
2023-02-28T21:54:00.119Z,40.13
2023-02-28T21:56:30.688Z,43.33
2023-02-28T21:59:01.228Z,41.87
2023-02-28T22:01:31.409Z,40.77
2023-02-28T22:03:59.693Z,41.77
2023-02-28T22:06:30.286Z,40.70
2023-02-28T22:09:00.199Z,36.63
2023-02-28T22:11:28.317Z,38.67
2023-02-28T22:13:57.203Z,43.30
2023-02-28T22:16:30.925Z,37.47
2023-02-28T22:18:59.152Z,41.93
2023-02-28T22:21:26.595Z,38.57
2023-02-28T22:23:53.936Z,34.10
2023-02-28T22:26:22.783Z,36.07
2023-02-28T22:28:50.766Z,37.57
2023-02-28T22:31:27.299Z,39.63
2023-02-28T22:33:57.105Z,44.83
2023-02-28T22:36:25.270Z,36.50
2023-02-28T22:38:53.090Z,38.27
2023-02-28T22:41:23.243Z,37.30
2023-02-28T22:43:56.820Z,41.60
2023-02-28T22:46:26.218Z,39.43
2023-02-28T22:48:54.540Z,43.53
2023-02-28T22:51:24.101Z,41.13
2023-02-28T22:53:52.837Z,37.60
2023-02-28T22:56:22.231Z,37.37
2023-02-28T22:58:54.333Z,32.93
2023-02-28T23:01:24.833Z,41.03
2023-02-28T23:03:52.635Z,43.83
2023-02-28T23:06:23.348Z,36.93
2023-02-28T23:08:53.065Z,37.53
2023-02-28T23:11:24.156Z,44.30
2023-02-28T23:13:58.759Z,29.08
2023-02-28T23:16:41.539Z,38.17
2023-02-28T23:19:15.329Z,38.30
2023-02-28T23:21:43.992Z,37.17
2023-02-28T23:24:13.096Z,37.57
2023-02-28T23:26:43.942Z,40.97
2023-02-28T23:29:13.990Z,36.77
2023-02-28T23:31:41.534Z,41.63
2023-02-28T23:34:09.331Z,42.47
2023-02-28T23:36:39.131Z,37.20
2023-02-28T23:39:06.548Z,40.87
2023-02-28T23:41:33.962Z,35.03
2023-02-28T23:44:01.416Z,35.73
2023-02-28T23:46:29.199Z,33.60
2023-02-28T23:48:58.352Z,31.43
2023-02-28T23:51:25.708Z,30.87
2023-02-28T23:53:53.128Z,33.60
2023-02-28T23:56:22.910Z,30.70
2023-02-28T23:58:51.345Z,32.60
